Time;durP1;ratioP1;P1;durP2;ratioP2;P2;SDS_P1;SDS_P2;PMS_P1;PMS_P2;Temp;Humidity;BMP_temperature;BMP_pressure;BME280_temperature;BME280_humidity;BME280_pressure;Samples;Min_cycle;Max_cycle;Signal;HPM_P1;HPM_P2
2023/12/27 00:01:35;;;;;;;14.27;3.50;;;2.80;99.90;;;;;;5026713;28;20381;-86
2023/12/27 00:04:01;;;;;;;12.35;3.40;;;2.70;99.90;;;;;;5002881;28;20048;-85
2023/12/27 00:06:27;;;;;;;18.40;3.38;;;2.70;99.90;;;;;;5013406;28;20041;-86
2023/12/27 00:08:53;;;;;;;12.82;2.92;;;2.70;99.90;;;;;;5002157;28;20136;-85
2023/12/27 00:11:18;;;;;;;11.85;3.25;;;2.70;99.90;;;;;;5005285;28;20179;-85
2023/12/27 00:13:44;;;;;;;16.90;3.22;;;2.70;99.90;;;;;;4998677;28;20046;-85
2023/12/27 00:16:10;;;;;;;13.20;3.28;;;2.60;99.90;;;;;;4993172;28;20053;-86
2023/12/27 00:18:37;;;;;;;8.90;2.83;;;2.60;99.90;;;;;;4995304;28;20484;-86
2023/12/27 00:21:04;;;;;;;12.68;3.17;;;2.60;99.90;;;;;;4995070;28;20045;-85
2023/12/27 00:23:29;;;;;;;10.13;2.90;;;2.50;99.90;;;;;;4975199;28;20084;-86
2023/12/27 00:25:57;;;;;;;14.98;3.42;;;2.50;99.90;;;;;;4992602;28;20116;-86
2023/12/27 00:28:23;;;;;;;10.50;3.00;;;2.50;99.90;;;;;;4985257;28;20536;-85
2023/12/27 00:30:51;;;;;;;15.75;3.83;;;2.40;99.90;;;;;;4993915;28;20091;-85
2023/12/27 00:33:17;;;;;;;9.82;3.13;;;2.40;99.90;;;;;;4994313;28;20052;-86
2023/12/27 00:35:43;;;;;;;10.23;3.35;;;2.40;99.90;;;;;;4989540;28;20061;-86
2023/12/27 00:38:09;;;;;;;12.45;3.28;;;2.30;99.90;;;;;;4999937;28;20041;-85
2023/12/27 00:40:35;;;;;;;13.90;3.67;;;2.40;99.90;;;;;;4989623;28;20105;-86
2023/12/27 00:43:01;;;;;;;17.75;4.40;;;2.30;99.90;;;;;;4994976;28;20123;-86
2023/12/27 00:45:27;;;;;;;9.27;3.05;;;2.30;99.90;;;;;;4984275;28;20038;-86
2023/12/27 00:47:52;;;;;;;14.88;3.85;;;2.30;99.90;;;;;;4978074;28;20064;-85
2023/12/27 00:50:19;;;;;;;13.52;3.30;;;2.30;99.90;;;;;;5002100;28;20649;-86
2023/12/27 00:52:45;;;;;;;17.33;3.92;;;2.30;99.90;;;;;;4991191;28;20453;-86
2023/12/27 00:55:10;;;;;;;14.35;3.88;;;2.30;99.90;;;;;;4992414;28;20030;-86
2023/12/27 00:57:36;;;;;;;12.77;3.47;;;2.40;99.90;;;;;;4987357;28;20510;-86
2023/12/27 01:00:03;;;;;;;14.90;4.00;;;2.30;99.90;;;;;;4985090;28;20477;-86
2023/12/27 01:02:30;;;;;;;12.00;3.60;;;2.20;99.90;;;;;;4981287;28;20048;-87
2023/12/27 01:04:56;;;;;;;12.43;3.60;;;2.20;99.90;;;;;;5015201;28;20536;-86
2023/12/27 01:07:22;;;;;;;12.63;3.33;;;2.20;99.90;;;;;;5001604;28;20049;-86
2023/12/27 01:09:48;;;;;;;11.40;3.60;;;2.10;99.90;;;;;;5005934;28;20148;-87
2023/12/27 01:12:14;;;;;;;15.23;3.58;;;2.00;99.90;;;;;;4984860;28;20398;-87
2023/12/27 01:14:40;;;;;;;11.25;3.90;;;2.10;99.90;;;;;;4998605;28;20072;-87
2023/12/27 01:17:06;;;;;;;12.40;3.17;;;2.10;99.90;;;;;;4988171;28;20230;-86
2023/12/27 01:19:32;;;;;;;14.13;3.53;;;2.00;99.90;;;;;;4982340;28;20055;-87
2023/12/27 01:21:58;;;;;;;7.82;3.13;;;2.00;99.90;;;;;;4990036;28;20041;-88
2023/12/27 01:24:23;;;;;;;13.32;3.65;;;2.00;99.90;;;;;;4994557;28;20053;-87
2023/12/27 01:26:49;;;;;;;14.93;3.38;;;2.00;99.90;;;;;;4986376;28;20044;-87
2023/12/27 01:29:15;;;;;;;11.02;3.45;;;1.90;99.90;;;;;;4984829;28;20033;-87
2023/12/27 01:31:40;;;;;;;10.70;3.05;;;1.90;99.90;;;;;;4982777;28;20048;-86
2023/12/27 01:34:06;;;;;;;11.50;3.28;;;2.00;99.90;;;;;;4983013;28;20548;-87
2023/12/27 01:36:35;;;;;;;14.93;3.35;;;2.00;99.90;;;;;;4989314;28;20072;-86
2023/12/27 01:39:01;;;;;;;13.80;3.15;;;2.00;99.90;;;;;;4986842;28;20417;-87
2023/12/27 01:41:26;;;;;;;14.15;4.00;;;2.00;99.90;;;;;;4991726;28;20118;-87
2023/12/27 01:43:52;;;;;;;16.10;3.78;;;1.90;99.90;;;;;;4978936;28;20045;-86
2023/12/27 01:46:18;;;;;;;10.55;3.35;;;1.90;99.90;;;;;;4984003;28;20298;-87
2023/12/27 01:48:44;;;;;;;10.35;3.10;;;1.90;99.90;;;;;;5000533;28;20076;-87
2023/12/27 01:51:12;;;;;;;20.02;4.13;;;1.90;99.90;;;;;;4978142;28;20121;-87
2023/12/27 01:53:39;;;;;;;18.10;4.03;;;1.80;99.90;;;;;;5001187;28;20045;-86
2023/12/27 01:56:06;;;;;;;15.70;3.38;;;1.80;99.90;;;;;;4981035;28;20096;-88
2023/12/27 01:58:34;;;;;;;10.75;3.40;;;1.80;99.90;;;;;;5000825;28;20099;-87
2023/12/27 02:01:00;;;;;;;13.45;3.80;;;1.80;99.90;;;;;;5000042;28;20045;-87
2023/12/27 02:03:26;;;;;;;13.27;3.70;;;1.80;99.90;;;;;;4985590;28;20049;-88
2023/12/27 02:05:53;;;;;;;11.50;3.80;;;1.70;99.90;;;;;;5002275;28;20505;-87
2023/12/27 02:08:24;;;;;;;10.30;3.53;;;1.70;99.90;;;;;;4998726;28;20180;-81
2023/12/27 02:10:50;;;;;;;16.15;4.22;;;1.70;99.90;;;;;;5003618;28;20057;-82
2023/12/27 02:13:16;;;;;;;9.82;3.63;;;1.70;99.90;;;;;;4992373;28;20267;-81
2023/12/27 02:15:42;;;;;;;10.73;3.85;;;1.60;99.90;;;;;;4996204;28;20555;-82
2023/12/27 02:18:10;;;;;;;15.63;3.72;;;1.70;99.90;;;;;;4998231;28;20037;-81
2023/12/27 02:20:36;;;;;;;15.48;3.92;;;1.70;99.90;;;;;;4986927;28;20064;-82
2023/12/27 02:23:07;;;;;;;16.08;4.20;;;1.60;99.90;;;;;;4985535;28;20129;-81
2023/12/27 02:25:32;;;;;;;18.70;4.03;;;1.60;99.90;;;;;;4981602;28;20073;-81
2023/12/27 02:27:58;;;;;;;14.00;3.55;;;1.50;99.90;;;;;;4982101;28;20285;-81
2023/12/27 02:30:24;;;;;;;9.77;3.80;;;1.50;99.90;;;;;;5001283;28;20044;-81
2023/12/27 02:32:51;;;;;;;13.90;4.20;;;1.50;99.90;;;;;;4993536;28;20041;-81
2023/12/27 02:35:18;;;;;;;15.05;3.67;;;1.40;99.90;;;;;;4990476;28;20037;-82
2023/12/27 02:37:44;;;;;;;14.80;4.30;;;1.40;99.90;;;;;;4980546;28;20136;-81
2023/12/27 02:40:10;;;;;;;13.38;3.80;;;1.40;99.90;;;;;;4985052;28;20607;-81
2023/12/27 02:42:37;;;;;;;19.05;3.70;;;1.30;99.90;;;;;;4988047;28;20132;-81
2023/12/27 02:45:04;;;;;;;12.18;3.10;;;1.30;99.90;;;;;;4982614;28;20386;-81
2023/12/27 02:47:29;;;;;;;9.52;3.63;;;1.30;99.90;;;;;;4997518;28;20744;-81
2023/12/27 02:49:55;;;;;;;14.27;3.78;;;1.20;99.90;;;;;;4986654;28;20045;-81
2023/12/27 02:52:21;;;;;;;20.85;4.03;;;1.20;99.90;;;;;;4996688;28;20168;-81
2023/12/27 02:54:46;;;;;;;12.57;4.05;;;1.20;99.90;;;;;;5000091;28;20056;-81
2023/12/27 02:57:13;;;;;;;15.77;3.78;;;1.20;99.90;;;;;;5002098;28;20049;-81
2023/12/27 02:59:39;;;;;;;11.43;3.92;;;1.20;99.90;;;;;;4999358;28;20578;-81
2023/12/27 03:02:05;;;;;;;14.23;4.20;;;1.30;99.90;;;;;;4993584;28;20037;-81
2023/12/27 03:04:30;;;;;;;12.07;3.70;;;1.30;99.90;;;;;;4977259;28;20497;-81
2023/12/27 03:06:56;;;;;;;13.15;4.18;;;1.30;99.90;;;;;;4997105;28;20417;-81
2023/12/27 03:09:22;;;;;;;13.90;3.80;;;1.30;99.90;;;;;;4976053;28;20489;-82
2023/12/27 03:11:51;;;;;;;11.15;3.60;;;1.30;99.90;;;;;;5001749;28;20049;-81
2023/12/27 03:14:17;;;;;;;18.95;4.35;;;1.20;99.90;;;;;;4999755;28;20124;-81
2023/12/27 03:16:43;;;;;;;11.85;4.25;;;1.20;99.90;;;;;;4985011;28;20037;-81
2023/12/27 03:19:08;;;;;;;14.68;4.15;;;1.20;99.90;;;;;;4992830;28;20029;-81
2023/12/27 03:21:37;;;;;;;16.98;3.92;;;1.30;99.90;;;;;;4978963;28;20133;-81
2023/12/27 03:24:03;;;;;;;13.95;3.97;;;1.30;99.90;;;;;;4983790;28;20409;-81
2023/12/27 03:26:29;;;;;;;12.95;4.00;;;1.20;99.90;;;;;;4984616;28;20075;-82
2023/12/27 03:28:55;;;;;;;14.80;4.43;;;1.30;99.90;;;;;;5002058;28;20087;-81
2023/12/27 03:31:22;;;;;;;15.95;4.40;;;1.30;99.90;;;;;;4999412;28;20045;-81
2023/12/27 03:33:48;;;;;;;17.15;4.30;;;1.40;99.90;;;;;;5000945;28;20045;-81
2023/12/27 03:36:13;;;;;;;15.75;5.03;;;1.40;99.90;;;;;;4990734;28;20124;-82
2023/12/27 03:38:39;;;;;;;17.15;5.10;;;1.40;99.90;;;;;;5001561;28;20045;-82
2023/12/27 03:41:05;;;;;;;18.58;4.93;;;1.40;99.90;;;;;;4996891;28;20452;-81
2023/12/27 03:43:30;;;;;;;14.80;4.97;;;1.30;99.90;;;;;;4985114;28;20179;-81
2023/12/27 03:45:58;;;;;;;15.80;5.32;;;1.40;99.90;;;;;;4993298;28;20037;-81
2023/12/27 03:48:23;;;;;;;11.80;4.78;;;1.40;99.90;;;;;;5000633;28;20038;-82
2023/12/27 03:50:49;;;;;;;13.95;4.45;;;1.40;99.90;;;;;;4982585;28;20048;-81
2023/12/27 03:53:15;;;;;;;13.43;4.85;;;1.40;99.90;;;;;;4996884;28;20116;-81
2023/12/27 03:55:42;;;;;;;17.35;5.28;;;1.30;99.90;;;;;;4992360;28;20124;-81
2023/12/27 03:58:08;;;;;;;16.50;5.70;;;1.30;99.90;;;;;;4998032;28;20146;-82
2023/12/27 04:00:33;;;;;;;20.98;5.63;;;1.30;99.90;;;;;;4985322;28;20570;-81
2023/12/27 04:02:59;;;;;;;12.73;5.40;;;1.30;99.90;;;;;;5014584;28;20045;-81
2023/12/27 04:05:25;;;;;;;13.13;5.20;;;1.40;99.90;;;;;;4985493;28;20055;-81
2023/12/27 04:07:51;;;;;;;14.50;5.15;;;1.40;99.90;;;;;;4980402;28;20038;-81
2023/12/27 04:10:16;;;;;;;20.77;6.90;;;1.30;99.90;;;;;;4997200;28;20053;-81
2023/12/27 04:12:42;;;;;;;22.88;5.80;;;1.40;99.90;;;;;;4984863;28;20132;-81
2023/12/27 04:15:08;;;;;;;15.18;5.75;;;1.40;99.90;;;;;;4992656;28;20485;-81
2023/12/27 04:17:34;;;;;;;16.05;5.70;;;1.40;99.90;;;;;;4998478;28;20045;-81
2023/12/27 04:20:00;;;;;;;16.38;5.43;;;1.50;99.90;;;;;;4975135;28;20038;-82
2023/12/27 04:22:25;;;;;;;16.25;5.93;;;1.40;99.90;;;;;;4999549;28;20049;-81
2023/12/27 04:24:51;;;;;;;20.13;6.25;;;1.40;99.90;;;;;;4973350;28;20489;-81
2023/12/27 04:27:17;;;;;;;14.63;5.10;;;1.50;99.90;;;;;;4976121;28;20091;-81
2023/12/27 04:29:43;;;;;;;18.13;6.13;;;1.50;99.90;;;;;;4982505;28;20055;-81
2023/12/27 04:32:08;;;;;;;15.23;5.50;;;1.40;99.90;;;;;;5003484;28;20041;-81
2023/12/27 04:34:34;;;;;;;16.50;5.53;;;1.50;99.90;;;;;;5005240;28;20446;-82
2023/12/27 04:37:00;;;;;;;18.58;6.25;;;1.50;99.90;;;;;;4997061;28;20041;-81
2023/12/27 04:39:26;;;;;;;19.88;6.57;;;1.50;99.90;;;;;;4995529;28;20408;-82
2023/12/27 04:41:51;;;;;;;15.20;5.97;;;1.50;99.90;;;;;;5000446;28;20044;-81
2023/12/27 04:44:20;;;;;;;16.17;6.10;;;1.60;99.90;;;;;;4999921;28;20050;-82
2023/12/27 04:46:46;;;;;;;17.50;6.47;;;1.50;99.90;;;;;;5002973;28;20041;-81
2023/12/27 04:49:12;;;;;;;20.55;6.78;;;1.60;99.90;;;;;;4994518;28;20612;-81
2023/12/27 04:51:39;;;;;;;20.25;6.35;;;1.50;99.90;;;;;;4995956;28;20112;-81
2023/12/27 04:54:05;;;;;;;15.13;6.65;;;1.60;99.90;;;;;;5001901;28;20435;-82
2023/12/27 04:56:30;;;;;;;17.83;6.38;;;1.50;99.90;;;;;;5003634;28;20468;-81
2023/12/27 04:58:56;;;;;;;14.48;6.68;;;1.50;99.90;;;;;;5005165;28;20046;-81
2023/12/27 05:01:22;;;;;;;10.70;6.40;;;1.50;99.90;;;;;;4977786;28;20356;-81
2023/12/27 05:03:50;;;;;;;17.60;6.68;;;1.50;99.90;;;;;;4985798;28;20105;-82
2023/12/27 05:06:16;;;;;;;21.02;7.18;;;1.60;99.90;;;;;;4994084;28;20260;-81
2023/12/27 05:08:42;;;;;;;25.08;7.25;;;1.50;99.90;;;;;;4994572;28;20052;-81
2023/12/27 05:11:18;;;;;;;21.77;8.38;;;1.70;99.90;;;;;;5023018;28;20053;-82
2023/12/27 05:13:44;;;;;;;20.92;7.60;;;1.60;99.90;;;;;;5002822;28;20089;-81
2023/12/27 05:16:17;;;;;;;18.75;7.03;;;1.70;99.90;;;;;;5021664;28;20076;-82
2023/12/27 05:18:46;;;;;;;23.73;8.45;;;1.60;99.90;;;;;;5008407;28;20483;-81
2023/12/27 05:21:13;;;;;;;16.80;7.22;;;1.70;99.90;;;;;;5015255;28;20401;-81
2023/12/27 05:23:39;;;;;;;28.08;7.90;;;1.80;99.90;;;;;;5002176;28;20037;-81
2023/12/27 05:26:05;;;;;;;21.15;7.65;;;1.70;99.90;;;;;;5005083;28;20531;-81
2023/12/27 05:28:32;;;;;;;15.38;7.28;;;1.80;99.90;;;;;;5006281;28;20036;-81
2023/12/27 05:30:58;;;;;;;15.52;7.57;;;1.80;99.90;;;;;;5002405;28;20674;-81
2023/12/27 05:33:24;;;;;;;20.00;7.72;;;1.80;99.90;;;;;;5023490;28;20356;-81
2023/12/27 05:35:50;;;;;;;19.98;7.85;;;1.80;99.90;;;;;;5006369;28;20472;-82
2023/12/27 05:38:16;;;;;;;16.60;7.43;;;1.80;99.90;;;;;;5009665;28;21248;-81
2023/12/27 05:40:42;;;;;;;23.70;7.88;;;1.80;99.90;;;;;;5005603;28;20048;-81
2023/12/27 05:43:08;;;;;;;18.42;7.25;;;1.80;99.90;;;;;;5013687;28;20128;-81
2023/12/27 05:45:33;;;;;;;19.33;8.05;;;1.90;99.90;;;;;;5005276;28;20045;-82
2023/12/27 05:47:59;;;;;;;18.15;8.52;;;1.80;99.90;;;;;;5021965;28;21963;-82
2023/12/27 05:50:25;;;;;;;18.33;7.63;;;1.80;99.90;;;;;;5006910;28;20040;-82
2023/12/27 05:52:51;;;;;;;21.73;8.30;;;1.80;99.90;;;;;;5008062;28;20097;-82
2023/12/27 05:55:16;;;;;;;18.67;7.80;;;1.90;99.90;;;;;;5004809;28;20624;-81
2023/12/27 05:57:42;;;;;;;14.10;6.63;;;1.90;99.90;;;;;;5007320;28;20045;-82
2023/12/27 06:00:08;;;;;;;16.42;6.70;;;1.90;99.90;;;;;;5012169;28;20965;-82
2023/12/27 06:02:34;;;;;;;17.38;7.55;;;1.90;99.90;;;;;;5008000;28;20033;-82
2023/12/27 06:05:00;;;;;;;13.77;6.97;;;1.90;99.90;;;;;;5017360;28;20590;-81
2023/12/27 06:07:26;;;;;;;21.00;7.40;;;1.90;99.90;;;;;;5024397;28;20037;-81
2023/12/27 06:09:52;;;;;;;18.20;7.03;;;1.90;99.90;;;;;;5005856;28;20309;-82
2023/12/27 06:12:18;;;;;;;16.10;6.25;;;1.90;99.90;;;;;;4985186;28;20049;-82
2023/12/27 06:14:44;;;;;;;12.93;6.82;;;1.90;99.90;;;;;;4991638;28;20049;-88
2023/12/27 06:17:10;;;;;;;14.00;6.78;;;2.00;99.90;;;;;;5000713;28;20041;-88
2023/12/27 06:19:36;;;;;;;21.40;7.50;;;2.00;99.90;;;;;;4995316;28;20397;-85
2023/12/27 06:22:02;;;;;;;20.77;7.20;;;2.00;99.90;;;;;;4982308;28;20045;-87
2023/12/27 06:24:28;;;;;;;16.60;6.13;;;2.00;99.90;;;;;;4982855;28;20056;-87
2023/12/27 06:26:54;;;;;;;18.63;7.30;;;2.00;99.90;;;;;;4999160;28;20046;-88
2023/12/27 06:29:20;;;;;;;19.13;6.90;;;2.10;99.90;;;;;;4971837;28;20168;-89
2023/12/27 06:31:45;;;;;;;15.07;6.85;;;2.10;99.90;;;;;;4974250;28;20080;-88
2023/12/27 06:34:11;;;;;;;16.50;6.40;;;2.10;99.90;;;;;;5003404;28;20527;-88
2023/12/27 06:36:38;;;;;;;19.35;6.72;;;2.10;99.90;;;;;;4980697;28;20725;-88
2023/12/27 06:39:06;;;;;;;14.65;5.68;;;2.10;99.90;;;;;;5019291;28;20644;-88
2023/12/27 06:41:35;;;;;;;18.55;6.00;;;2.20;99.90;;;;;;4999303;28;20346;-87
2023/12/27 06:44:02;;;;;;;17.63;6.25;;;2.20;99.90;;;;;;5000216;28;20054;-89
2023/12/27 06:46:31;;;;;;;16.92;6.50;;;2.20;99.90;;;;;;5005044;28;20045;-88
2023/12/27 06:48:57;;;;;;;17.95;6.18;;;2.30;99.90;;;;;;4984055;28;20122;-87
2023/12/27 06:51:23;;;;;;;13.73;6.07;;;2.20;99.90;;;;;;4980457;28;20042;-82
2023/12/27 06:53:48;;;;;;;14.15;5.70;;;2.20;99.90;;;;;;4978616;28;20041;-81
2023/12/27 06:56:15;;;;;;;14.18;5.70;;;2.20;99.90;;;;;;4976859;28;20058;-82
2023/12/27 06:58:41;;;;;;;23.30;5.90;;;2.30;99.90;;;;;;4994917;28;20040;-82
2023/12/27 07:01:09;;;;;;;14.85;5.70;;;2.30;99.90;;;;;;4967719;28;20037;-88
2023/12/27 07:03:35;;;;;;;16.38;4.72;;;2.30;99.90;;;;;;4980814;28;20037;-88
2023/12/27 07:06:01;;;;;;;11.43;4.63;;;2.40;99.90;;;;;;4988881;28;20048;-87
2023/12/27 07:08:27;;;;;;;14.52;4.70;;;2.30;99.90;;;;;;4973058;28;20037;-88
2023/12/27 07:10:52;;;;;;;13.52;4.40;;;2.40;99.90;;;;;;4998152;28;20086;-88
2023/12/27 07:13:18;;;;;;;14.10;5.00;;;2.40;99.90;;;;;;5006905;28;20584;-88
2023/12/27 07:15:44;;;;;;;14.00;4.68;;;2.40;99.90;;;;;;5015258;28;20041;-88
2023/12/27 07:18:10;;;;;;;14.68;4.50;;;2.40;99.90;;;;;;5001548;28;20045;-88
2023/12/27 07:20:35;;;;;;;12.18;3.92;;;2.40;99.90;;;;;;4995175;28;20254;-88
2023/12/27 07:23:01;;;;;;;14.18;4.07;;;2.50;99.90;;;;;;4984529;28;20347;-88
2023/12/27 07:25:27;;;;;;;14.35;4.00;;;2.60;99.90;;;;;;4983701;28;20064;-88
2023/12/27 07:27:53;;;;;;;12.13;3.67;;;2.50;99.90;;;;;;4990567;28;20111;-88
2023/12/27 07:30:18;;;;;;;12.20;3.72;;;2.50;99.90;;;;;;5004481;28;20040;-88
2023/12/27 07:32:44;;;;;;;13.73;3.72;;;2.60;99.90;;;;;;5001453;28;20474;-88
2023/12/27 07:35:10;;;;;;;11.32;3.70;;;2.60;99.90;;;;;;4986963;28;20449;-88
2023/12/27 07:37:35;;;;;;;14.48;4.22;;;2.70;99.90;;;;;;4999347;28;20041;-87
2023/12/27 07:40:02;;;;;;;15.90;3.92;;;2.70;99.90;;;;;;4986552;28;20045;-88
2023/12/27 07:42:31;;;;;;;12.57;3.90;;;2.60;99.90;;;;;;5009393;28;20069;-88
2023/12/27 07:44:57;;;;;;;12.02;4.28;;;2.80;99.90;;;;;;4979921;28;20271;-88
2023/12/27 07:47:22;;;;;;;14.40;4.00;;;2.80;99.90;;;;;;5005039;28;20223;-87
2023/12/27 07:49:48;;;;;;;10.50;4.13;;;2.80;99.90;;;;;;4990940;28;20045;-87
2023/12/27 07:52:14;;;;;;;14.02;4.50;;;2.90;99.90;;;;;;4992937;28;20041;-87
2023/12/27 07:54:39;;;;;;;15.48;4.95;;;2.90;99.90;;;;;;5005598;28;20041;-87
2023/12/27 07:57:05;;;;;;;12.20;4.85;;;3.00;99.90;;;;;;5005185;28;20042;-87
2023/12/27 07:59:31;;;;;;;17.00;4.80;;;2.90;99.90;;;;;;5001656;28;20041;-87
2023/12/27 08:01:58;;;;;;;19.67;4.90;;;3.10;99.90;;;;;;4991925;28;20493;-87
2023/12/27 08:04:26;;;;;;;13.65;5.00;;;3.10;99.90;;;;;;4988298;28;20176;-87
2023/12/27 08:06:52;;;;;;;14.82;5.20;;;3.20;99.90;;;;;;4986836;28;20046;-87
2023/12/27 08:09:18;;;;;;;30.35;6.70;;;3.10;99.90;;;;;;4988702;28;20060;-87
2023/12/27 08:11:44;;;;;;;11.68;4.93;;;3.10;99.90;;;;;;5023709;28;20106;-88
2023/12/27 08:14:10;;;;;;;12.73;5.45;;;3.20;99.90;;;;;;5005093;28;20049;-87
2023/12/27 08:16:36;;;;;;;13.38;5.57;;;3.30;99.90;;;;;;5004959;28;20045;-87
2023/12/27 08:19:01;;;;;;;17.55;5.93;;;3.20;99.90;;;;;;5009613;28;20332;-87
2023/12/27 08:21:28;;;;;;;11.45;5.70;;;3.20;99.90;;;;;;5023834;28;20095;-87
2023/12/27 08:23:53;;;;;;;10.38;5.65;;;3.30;99.90;;;;;;5001758;28;20095;-87
2023/12/27 08:26:20;;;;;;;20.55;5.80;;;3.30;99.90;;;;;;5013989;28;20033;-87
2023/12/27 08:28:46;;;;;;;15.60;6.05;;;3.40;99.90;;;;;;5021226;28;20033;-87
2023/12/27 08:31:13;;;;;;;16.63;6.75;;;3.50;99.90;;;;;;5007393;28;20438;-87
2023/12/27 08:33:39;;;;;;;21.45;6.50;;;3.50;99.90;;;;;;5014861;28;20045;-87
2023/12/27 08:36:05;;;;;;;14.10;6.65;;;3.50;99.90;;;;;;5033205;28;20442;-87
2023/12/27 08:38:32;;;;;;;19.02;7.03;;;3.50;99.90;;;;;;5013356;28;20041;-86
2023/12/27 08:40:58;;;;;;;20.58;6.90;;;3.50;99.90;;;;;;5008545;28;20485;-87
2023/12/27 08:43:29;;;;;;;19.52;7.45;;;3.70;99.90;;;;;;5026858;28;20117;-87
2023/12/27 08:45:58;;;;;;;16.30;7.18;;;3.60;99.90;;;;;;5026151;28;20408;-87
2023/12/27 08:48:24;;;;;;;16.27;7.00;;;3.80;99.90;;;;;;5039014;28;20065;-86
2023/12/27 08:50:51;;;;;;;14.27;6.72;;;3.60;99.90;;;;;;5020140;28;20041;-86
2023/12/27 08:53:17;;;;;;;11.82;6.95;;;3.80;99.90;;;;;;5035603;28;20517;-87
2023/12/27 08:55:42;;;;;;;20.75;6.97;;;3.70;99.90;;;;;;5015084;28;20034;-87
2023/12/27 08:58:09;;;;;;;21.52;7.22;;;3.80;99.90;;;;;;4991645;28;20404;-86
2023/12/27 09:00:35;;;;;;;14.30;7.03;;;3.80;99.90;;;;;;4994570;28;20678;-86
2023/12/27 09:03:01;;;;;;;16.15;7.25;;;3.70;99.90;;;;;;5019465;28;20315;-87
2023/12/27 09:05:27;;;;;;;19.20;7.75;;;3.80;99.90;;;;;;5022554;28;20049;-86
2023/12/27 09:07:52;;;;;;;22.52;7.03;;;3.90;99.90;;;;;;5013447;28;20071;-86
2023/12/27 09:10:18;;;;;;;20.27;6.85;;;4.00;99.90;;;;;;5007195;28;20049;-87
2023/12/27 09:12:44;;;;;;;21.73;7.63;;;4.00;99.90;;;;;;5001655;28;20121;-86
2023/12/27 09:15:10;;;;;;;14.93;7.03;;;3.90;99.90;;;;;;4998919;28;20377;-86
2023/12/27 09:17:36;;;;;;;17.30;6.82;;;3.80;99.90;;;;;;4988282;28;20083;-86
2023/12/27 09:20:05;;;;;;;15.88;7.10;;;3.90;99.90;;;;;;5014609;28;20086;-87
2023/12/27 09:22:31;;;;;;;15.30;6.85;;;4.10;99.90;;;;;;4998853;28;20106;-87
2023/12/27 09:25:00;;;;;;;14.40;7.38;;;4.00;99.90;;;;;;5000431;28;20084;-86
2023/12/27 09:27:26;;;;;;;17.65;6.82;;;4.10;99.90;;;;;;5001944;28;20073;-86
2023/12/27 09:29:52;;;;;;;13.15;6.00;;;4.10;99.90;;;;;;5003264;28;20120;-86
2023/12/27 09:32:21;;;;;;;16.45;6.47;;;4.10;99.90;;;;;;4997738;28;20369;-86
2023/12/27 09:34:49;;;;;;;14.23;6.25;;;4.10;99.90;;;;;;4995956;28;20116;-86
2023/12/27 09:37:21;;;;;;;14.10;6.43;;;4.10;99.90;;;;;;5006797;28;20037;-84
2023/12/27 09:39:47;;;;;;;19.80;6.47;;;4.20;99.90;;;;;;5022805;28;20052;-86
2023/12/27 09:42:14;;;;;;;16.20;6.60;;;4.30;99.90;;;;;;4990340;28;20061;-86
2023/12/27 09:44:42;;;;;;;16.08;6.47;;;4.30;99.90;;;;;;5004845;28;20049;-87
2023/12/27 09:47:10;;;;;;;13.90;6.35;;;4.30;99.90;;;;;;5001316;28;20044;-86
2023/12/27 09:49:37;;;;;;;15.20;6.32;;;4.40;99.90;;;;;;5015576;28;20161;-87
2023/12/27 09:52:07;;;;;;;13.77;6.15;;;4.30;99.90;;;;;;5007388;28;20390;-86
2023/12/27 09:54:33;;;;;;;14.70;5.70;;;4.40;99.90;;;;;;5001981;28;20041;-86
2023/12/27 09:57:00;;;;;;;14.38;5.95;;;4.30;99.90;;;;;;5026121;28;20033;-86
2023/12/27 09:59:33;;;;;;;16.85;6.50;;;4.50;99.90;;;;;;5018607;28;20500;-86
2023/12/27 10:02:00;;;;;;;13.90;6.25;;;4.50;99.90;;;;;;5018036;28;20044;-86
2023/12/27 10:04:44;;;;;;;13.95;6.10;;;4.40;99.90;;;;;;5021532;28;20130;-86
2023/12/27 10:07:12;;;;;;;15.95;6.50;;;4.40;99.90;;;;;;5004334;28;20464;-86
2023/12/27 10:09:38;;;;;;;16.67;6.22;;;4.60;99.90;;;;;;5008701;28;20398;-86
2023/12/27 10:12:07;;;;;;;16.45;6.10;;;4.60;99.90;;;;;;5004275;28;20060;-86
2023/12/27 10:14:35;;;;;;;14.98;6.88;;;4.70;99.90;;;;;;5011205;28;20687;-87
2023/12/27 10:17:03;;;;;;;12.50;6.72;;;4.60;99.90;;;;;;5000312;28;20056;-86
2023/12/27 10:19:43;;;;;;;14.52;6.15;;;4.70;99.90;;;;;;4997038;28;20449;-85
2023/12/27 10:22:10;;;;;;;14.27;6.68;;;4.80;99.90;;;;;;5015691;28;20049;-86
2023/12/27 10:24:36;;;;;;;16.23;6.32;;;4.80;99.90;;;;;;5007566;28;20260;-86
2023/12/27 10:27:03;;;;;;;27.25;7.35;;;4.80;99.90;;;;;;5004006;28;20484;-86
2023/12/27 10:29:31;;;;;;;18.17;6.35;;;4.90;99.90;;;;;;5002983;28;20496;-86
2023/12/27 10:31:59;;;;;;;16.70;6.93;;;5.00;99.90;;;;;;4999382;28;20525;-86
2023/12/27 10:34:31;;;;;;;15.30;6.68;;;5.00;99.90;;;;;;5014368;28;20545;-86
2023/12/27 10:37:01;;;;;;;17.20;7.25;;;5.00;99.90;;;;;;5020933;28;20056;-85
2023/12/27 10:39:27;;;;;;;18.35;7.00;;;5.10;99.90;;;;;;5013196;28;20124;-85
2023/12/27 10:41:56;;;;;;;14.50;6.85;;;5.20;99.90;;;;;;5000355;28;20137;-86
2023/12/27 10:44:22;;;;;;;16.77;6.93;;;5.20;99.90;;;;;;5000088;28;20049;-85
2023/12/27 10:46:49;;;;;;;14.35;6.60;;;5.10;99.90;;;;;;5005843;28;20083;-85
2023/12/27 10:49:17;;;;;;;17.50;6.90;;;5.20;99.90;;;;;;5003635;28;20117;-86
2023/12/27 10:51:43;;;;;;;12.27;6.43;;;5.20;99.90;;;;;;4995866;28;20540;-86
2023/12/27 10:54:13;;;;;;;13.57;7.20;;;5.30;99.90;;;;;;5016337;28;20175;-86
2023/12/27 10:56:40;;;;;;;13.13;6.57;;;5.30;99.90;;;;;;4998196;28;20113;-85
2023/12/27 10:59:07;;;;;;;14.73;7.10;;;5.30;99.90;;;;;;5004240;28;20699;-86
2023/12/27 11:01:35;;;;;;;15.95;7.13;;;5.30;99.90;;;;;;5001102;28;20156;-85
2023/12/27 11:04:09;;;;;;;15.43;7.07;;;5.40;99.90;;;;;;5015261;28;20110;-86
2023/12/27 11:06:47;;;;;;;18.50;7.20;;;5.30;99.90;;;;;;5008777;28;20076;-86
2023/12/27 11:09:14;;;;;;;16.73;7.00;;;5.30;99.90;;;;;;5015658;28;20049;-86
2023/12/27 11:11:40;;;;;;;17.80;7.28;;;5.40;99.90;;;;;;4999793;28;20064;-85
2023/12/27 11:14:13;;;;;;;15.40;7.38;;;5.30;99.90;;;;;;5011147;28;20109;-86
2023/12/27 11:16:40;;;;;;;18.13;7.53;;;5.40;99.90;;;;;;4992521;28;20053;-86
2023/12/27 11:19:14;;;;;;;21.80;7.75;;;5.50;99.90;;;;;;4995547;28;20517;-86
2023/12/27 11:21:43;;;;;;;12.63;7.22;;;5.50;99.90;;;;;;5000782;28;20585;-85
2023/12/27 11:24:38;;;;;;;;;;;;;;;;;;;;;
2023/12/27 11:27:18;;;;;;;18.27;8.20;;;5.40;99.90;;;;;;5028745;28;20256;-86
2023/12/27 11:29:46;;;;;;;16.17;7.28;;;5.40;99.90;;;;;;5001756;28;20094;-88
2023/12/27 11:32:12;;;;;;;21.83;7.68;;;5.60;99.90;;;;;;5015249;28;20041;-88
2023/12/27 11:34:37;;;;;;;18.33;7.18;;;5.50;99.90;;;;;;5011130;28;20400;-89
2023/12/27 11:37:05;;;;;;;15.20;7.43;;;5.50;99.90;;;;;;4993401;28;20034;-88
2023/12/27 11:39:32;;;;;;;17.52;7.15;;;5.50;99.90;;;;;;5004112;28;20698;-89
2023/12/27 11:42:00;;;;;;;16.02;7.30;;;5.50;99.90;;;;;;5003873;28;20567;-87
2023/12/27 11:44:39;;;;;;;17.77;7.80;;;5.50;99.90;;;;;;4998250;28;20051;-88
2023/12/27 11:47:05;;;;;;;18.42;8.43;;;5.50;99.90;;;;;;4988500;28;20343;-88
2023/12/27 11:49:31;;;;;;;19.73;8.13;;;5.50;99.90;;;;;;5013206;28;20393;-87
2023/12/27 11:51:59;;;;;;;20.50;7.45;;;5.50;99.90;;;;;;4991545;28;21146;-87
2023/12/27 11:54:28;;;;;;;19.63;8.32;;;5.50;99.90;;;;;;5007840;28;20052;-87
2023/12/27 11:56:54;;;;;;;17.42;8.27;;;5.60;99.90;;;;;;4996600;28;20041;-88
2023/12/27 11:59:22;;;;;;;16.88;8.43;;;5.60;99.90;;;;;;5017352;28;20041;-88
2023/12/27 12:01:49;;;;;;;19.27;8.63;;;5.60;99.90;;;;;;5001742;28;20433;-88
2023/12/27 12:04:36;;;;;;;16.13;8.02;;;5.50;99.90;;;;;;5001222;28;20511;-88
2023/12/27 12:07:28;;;;;;;14.80;8.40;;;5.60;99.90;;;;;;5018466;28;20053;-88
2023/12/27 12:09:54;;;;;;;22.45;8.35;;;5.50;99.90;;;;;;5004017;28;20049;-89
2023/12/27 12:12:25;;;;;;;17.10;8.43;;;5.50;99.90;;;;;;5033616;28;20725;-88
2023/12/27 12:14:51;;;;;;;18.25;8.90;;;5.50;99.90;;;;;;5003923;28;20037;-88
2023/12/27 12:17:21;;;;;;;14.63;8.43;;;5.60;99.90;;;;;;4998317;28;20041;-88
2023/12/27 12:19:49;;;;;;;18.08;8.93;;;5.50;99.90;;;;;;5016412;28;20088;-89
2023/12/27 12:22:15;;;;;;;18.73;8.48;;;5.50;99.90;;;;;;4998521;28;20033;-88
2023/12/27 12:24:42;;;;;;;18.83;9.40;;;5.50;99.90;;;;;;5002712;28;20049;-89
2023/12/27 12:27:08;;;;;;;16.67;9.18;;;5.50;99.90;;;;;;4991447;28;20048;-89
2023/12/27 12:29:33;;;;;;;15.07;8.88;;;5.50;99.90;;;;;;4990878;28;20477;-89
2023/12/27 12:31:59;;;;;;;12.80;8.73;;;5.50;99.90;;;;;;5007813;28;20045;-88
2023/12/27 12:34:28;;;;;;;15.60;8.75;;;5.50;99.90;;;;;;5017000;28;20523;-87
2023/12/27 12:36:54;;;;;;;16.42;9.43;;;5.50;99.90;;;;;;5001141;28;20037;-88
2023/12/27 12:39:20;;;;;;;15.45;9.13;;;5.50;99.90;;;;;;5002029;28;20063;-89
2023/12/27 12:41:46;;;;;;;13.93;8.85;;;5.50;99.90;;;;;;4997991;28;20169;-89
2023/12/27 12:44:15;;;;;;;13.10;9.43;;;5.50;99.90;;;;;;5008734;28;20049;-89
2023/12/27 12:46:42;;;;;;;19.30;10.13;;;5.50;99.90;;;;;;5028124;28;20053;-89